sensor_id;sensor_type;location;lat;lon;timestamp;temperature;humidity
4910;DHT22;2470;49.868;8.660;2023-05-10T00:02:07;15.60;99.90
4910;DHT22;2470;49.868;8.660;2023-05-10T00:04:33;15.60;99.90
4910;DHT22;2470;49.868;8.660;2023-05-10T00:06:58;15.50;99.90
4910;DHT22;2470;49.868;8.660;2023-05-10T00:09:24;15.50;99.90
4910;DHT22;2470;49.868;8.660;2023-05-10T00:11:49;15.50;99.90
4910;DHT22;2470;49.868;8.660;2023-05-10T00:14:15;15.40;99.90
4910;DHT22;2470;49.868;8.660;2023-05-10T00:16:40;15.40;99.90
4910;DHT22;2470;49.868;8.660;2023-05-10T00:19:06;15.40;99.90
4910;DHT22;2470;49.868;8.660;2023-05-10T00:21:31;15.40;99.90
4910;DHT22;2470;49.868;8.660;2023-05-10T00:23:59;15.40;99.90
4910;DHT22;2470;49.868;8.660;2023-05-10T00:26:24;15.40;99.90
4910;DHT22;2470;49.868;8.660;2023-05-10T00:28:50;15.40;99.90
4910;DHT22;2470;49.868;8.660;2023-05-10T00:31:15;15.40;99.90
4910;DHT22;2470;49.868;8.660;2023-05-10T00:33:41;15.30;99.90
4910;DHT22;2470;49.868;8.660;2023-05-10T00:36:07;15.30;99.90
4910;DHT22;2470;49.868;8.660;2023-05-10T00:38:33;15.30;99.90
4910;DHT22;2470;49.868;8.660;2023-05-10T00:40:58;15.30;99.90
4910;DHT22;2470;49.868;8.660;2023-05-10T00:43:24;15.30;99.90
4910;DHT22;2470;49.868;8.660;2023-05-10T00:45:49;15.30;99.90
4910;DHT22;2470;49.868;8.660;2023-05-10T00:48:15;15.40;99.90
4910;DHT22;2470;49.868;8.660;2023-05-10T00:50:40;15.30;99.90
4910;DHT22;2470;49.868;8.660;2023-05-10T00:53:07;15.30;99.90
4910;DHT22;2470;49.868;8.660;2023-05-10T00:55:33;15.20;99.90
4910;DHT22;2470;49.868;8.660;2023-05-10T00:57:59;15.20;99.90
4910;DHT22;2470;49.868;8.660;2023-05-10T01:00:24;15.20;99.90
4910;DHT22;2470;49.868;8.660;2023-05-10T01:02:50;15.20;99.90
4910;DHT22;2470;49.868;8.660;2023-05-10T01:05:16;15.20;99.90
4910;DHT22;2470;49.868;8.660;2023-05-10T01:07:42;15.20;99.90
4910;DHT22;2470;49.868;8.660;2023-05-10T01:10:08;15.20;99.90
4910;DHT22;2470;49.868;8.660;2023-05-10T01:12:36;15.20;99.90
4910;DHT22;2470;49.868;8.660;2023-05-10T01:15:03;15.20;99.90
4910;DHT22;2470;49.868;8.660;2023-05-10T01:17:30;15.30;99.90
4910;DHT22;2470;49.868;8.660;2023-05-10T01:19:55;15.30;99.90
4910;DHT22;2470;49.868;8.660;2023-05-10T01:25:32;15.20;99.90
4910;DHT22;2470;49.868;8.660;2023-05-10T01:33:52;15.10;99.90
4910;DHT22;2470;49.868;8.660;2023-05-10T01:36:43;15.00;99.90
4910;DHT22;2470;49.868;8.660;2023-05-10T01:39:16;15.10;99.90
4910;DHT22;2470;49.868;8.660;2023-05-10T01:42:14;15.10;99.90
4910;DHT22;2470;49.868;8.660;2023-05-10T01:45:02;15.00;99.90
4910;DHT22;2470;49.868;8.660;2023-05-10T01:47:47;15.00;99.90
4910;DHT22;2470;49.868;8.660;2023-05-10T01:50:21;15.00;99.90
4910;DHT22;2470;49.868;8.660;2023-05-10T01:52:53;15.10;99.90
4910;DHT22;2470;49.868;8.660;2023-05-10T01:55:21;15.10;99.90
4910;DHT22;2470;49.868;8.660;2023-05-10T01:57:56;15.10;99.90
4910;DHT22;2470;49.868;8.660;2023-05-10T02:00:24;15.10;99.90
4910;DHT22;2470;49.868;8.660;2023-05-10T02:02:50;15.10;99.90
4910;DHT22;2470;49.868;8.660;2023-05-10T02:05:18;15.00;99.90
4910;DHT22;2470;49.868;8.660;2023-05-10T02:07:45;14.90;99.90
4910;DHT22;2470;49.868;8.660;2023-05-10T02:10:12;15.00;99.90
4910;DHT22;2470;49.868;8.660;2023-05-10T02:12:43;15.00;99.90
4910;DHT22;2470;49.868;8.660;2023-05-10T02:15:11;15.00;99.90
4910;DHT22;2470;49.868;8.660;2023-05-10T02:17:39;15.00;99.90
4910;DHT22;2470;49.868;8.660;2023-05-10T02:20:07;15.00;99.90
4910;DHT22;2470;49.868;8.660;2023-05-10T02:22:35;15.00;99.90
4910;DHT22;2470;49.868;8.660;2023-05-10T02:25:01;15.00;99.90
4910;DHT22;2470;49.868;8.660;2023-05-10T02:27:28;14.90;99.90
4910;DHT22;2470;49.868;8.660;2023-05-10T02:29:54;14.90;99.90
4910;DHT22;2470;49.868;8.660;2023-05-10T02:32:21;14.80;99.90
4910;DHT22;2470;49.868;8.660;2023-05-10T02:34:48;14.80;99.90
4910;DHT22;2470;49.868;8.660;2023-05-10T02:37:19;14.90;99.90
4910;DHT22;2470;49.868;8.660;2023-05-10T02:39:47;14.90;99.90
4910;DHT22;2470;49.868;8.660;2023-05-10T02:42:17;15.00;99.90
4910;DHT22;2470;49.868;8.660;2023-05-10T02:44:43;14.90;99.90
4910;DHT22;2470;49.868;8.660;2023-05-10T02:47:10;14.80;99.90
4910;DHT22;2470;49.868;8.660;2023-05-10T02:49:36;14.80;99.90
4910;DHT22;2470;49.868;8.660;2023-05-10T02:52:05;14.80;99.90
4910;DHT22;2470;49.868;8.660;2023-05-10T02:54:34;14.80;99.90
4910;DHT22;2470;49.868;8.660;2023-05-10T02:57:04;14.80;99.90
4910;DHT22;2470;49.868;8.660;2023-05-10T02:59:30;14.80;99.90
4910;DHT22;2470;49.868;8.660;2023-05-10T03:01:56;14.90;99.90
4910;DHT22;2470;49.868;8.660;2023-05-10T03:04:21;14.80;99.90
4910;DHT22;2470;49.868;8.660;2023-05-10T03:06:47;14.80;99.90
4910;DHT22;2470;49.868;8.660;2023-05-10T03:09:13;14.70;99.90
4910;DHT22;2470;49.868;8.660;2023-05-10T03:12:01;14.70;99.90
4910;DHT22;2470;49.868;8.660;2023-05-10T03:17:35;14.70;99.90
4910;DHT22;2470;49.868;8.660;2023-05-10T03:20:26;14.70;99.90
4910;DHT22;2470;49.868;8.660;2023-05-10T03:23:04;14.80;99.90
4910;DHT22;2470;49.868;8.660;2023-05-10T03:25:31;14.90;99.90
4910;DHT22;2470;49.868;8.660;2023-05-10T03:27:58;14.90;99.90
4910;DHT22;2470;49.868;8.660;2023-05-10T03:30:24;14.80;99.90
4910;DHT22;2470;49.868;8.660;2023-05-10T03:32:50;14.70;99.90
4910;DHT22;2470;49.868;8.660;2023-05-10T03:35:16;14.70;99.90
4910;DHT22;2470;49.868;8.660;2023-05-10T03:37:41;14.60;99.90
4910;DHT22;2470;49.868;8.660;2023-05-10T03:40:07;14.60;99.90
4910;DHT22;2470;49.868;8.660;2023-05-10T03:42:33;14.60;99.90
4910;DHT22;2470;49.868;8.660;2023-05-10T03:44:59;14.70;99.90
4910;DHT22;2470;49.868;8.660;2023-05-10T03:47:24;14.60;99.90
4910;DHT22;2470;49.868;8.660;2023-05-10T03:49:50;14.60;99.90
4910;DHT22;2470;49.868;8.660;2023-05-10T03:52:15;14.60;99.90
4910;DHT22;2470;49.868;8.660;2023-05-10T03:54:41;14.60;99.90
4910;DHT22;2470;49.868;8.660;2023-05-10T03:57:06;14.60;99.90
4910;DHT22;2470;49.868;8.660;2023-05-10T03:59:32;14.60;99.90
4910;DHT22;2470;49.868;8.660;2023-05-10T04:01:57;14.70;99.90
4910;DHT22;2470;49.868;8.660;2023-05-10T04:04:23;14.70;99.90
4910;DHT22;2470;49.868;8.660;2023-05-10T04:06:49;14.70;99.90
4910;DHT22;2470;49.868;8.660;2023-05-10T04:09:15;14.70;99.90
4910;DHT22;2470;49.868;8.660;2023-05-10T04:11:41;14.70;99.90
4910;DHT22;2470;49.868;8.660;2023-05-10T04:14:07;14.70;99.90
4910;DHT22;2470;49.868;8.660;2023-05-10T04:16:32;14.70;99.90
4910;DHT22;2470;49.868;8.660;2023-05-10T04:18:58;14.70;99.90
4910;DHT22;2470;49.868;8.660;2023-05-10T04:21:23;14.70;99.90
4910;DHT22;2470;49.868;8.660;2023-05-10T04:23:49;14.60;99.90
4910;DHT22;2470;49.868;8.660;2023-05-10T04:26:14;14.60;99.90
4910;DHT22;2470;49.868;8.660;2023-05-10T04:28:40;14.60;99.90
4910;DHT22;2470;49.868;8.660;2023-05-10T04:31:07;14.60;99.90
4910;DHT22;2470;49.868;8.660;2023-05-10T04:33:33;14.60;99.90
4910;DHT22;2470;49.868;8.660;2023-05-10T04:36:00;14.60;99.90
4910;DHT22;2470;49.868;8.660;2023-05-10T04:38:26;14.60;99.90
4910;DHT22;2470;49.868;8.660;2023-05-10T04:40:52;14.60;99.90
4910;DHT22;2470;49.868;8.660;2023-05-10T04:43:18;14.70;99.90
4910;DHT22;2470;49.868;8.660;2023-05-10T04:45:44;14.60;99.90
4910;DHT22;2470;49.868;8.660;2023-05-10T04:48:09;14.60;99.90
4910;DHT22;2470;49.868;8.660;2023-05-10T04:50:35;14.60;99.90
4910;DHT22;2470;49.868;8.660;2023-05-10T04:53:00;14.60;99.90
4910;DHT22;2470;49.868;8.660;2023-05-10T04:55:26;14.60;99.90
4910;DHT22;2470;49.868;8.660;2023-05-10T04:57:52;14.60;99.90
4910;DHT22;2470;49.868;8.660;2023-05-10T05:00:18;14.60;99.90
4910;DHT22;2470;49.868;8.660;2023-05-10T05:02:45;14.60;99.90
4910;DHT22;2470;49.868;8.660;2023-05-10T05:05:11;14.60;99.90
4910;DHT22;2470;49.868;8.660;2023-05-10T05:07:37;14.60;99.90
4910;DHT22;2470;49.868;8.660;2023-05-10T05:10:07;14.60;99.90
4910;DHT22;2470;49.868;8.660;2023-05-10T05:12:33;14.50;99.90
4910;DHT22;2470;49.868;8.660;2023-05-10T05:14:58;14.50;99.90
4910;DHT22;2470;49.868;8.660;2023-05-10T05:17:23;14.60;99.90
4910;DHT22;2470;49.868;8.660;2023-05-10T05:19:49;14.60;99.90
4910;DHT22;2470;49.868;8.660;2023-05-10T05:22:14;14.50;99.90
4910;DHT22;2470;49.868;8.660;2023-05-10T05:24:40;14.60;99.90
4910;DHT22;2470;49.868;8.660;2023-05-10T05:27:05;14.60;99.90
4910;DHT22;2470;49.868;8.660;2023-05-10T05:29:31;14.60;99.90
4910;DHT22;2470;49.868;8.660;2023-05-10T05:31:57;14.50;99.90
4910;DHT22;2470;49.868;8.660;2023-05-10T05:34:22;14.60;99.90
4910;DHT22;2470;49.868;8.660;2023-05-10T05:36:48;14.60;99.90
4910;DHT22;2470;49.868;8.660;2023-05-10T05:39:14;14.60;99.90
4910;DHT22;2470;49.868;8.660;2023-05-10T05:41:39;14.70;99.90
4910;DHT22;2470;49.868;8.660;2023-05-10T05:44:05;14.70;99.90
4910;DHT22;2470;49.868;8.660;2023-05-10T05:46:30;14.70;99.90
4910;DHT22;2470;49.868;8.660;2023-05-10T05:48:56;14.70;99.90
4910;DHT22;2470;49.868;8.660;2023-05-10T05:51:22;14.80;99.90
4910;DHT22;2470;49.868;8.660;2023-05-10T05:53:47;14.80;99.90
4910;DHT22;2470;49.868;8.660;2023-05-10T05:56:13;14.90;99.90
4910;DHT22;2470;49.868;8.660;2023-05-10T05:58:38;15.00;99.90
4910;DHT22;2470;49.868;8.660;2023-05-10T06:01:04;15.00;99.90
4910;DHT22;2470;49.868;8.660;2023-05-10T06:03:29;15.10;99.90
4910;DHT22;2470;49.868;8.660;2023-05-10T06:05:55;15.10;99.90
4910;DHT22;2470;49.868;8.660;2023-05-10T06:08:20;15.10;99.90
4910;DHT22;2470;49.868;8.660;2023-05-10T06:10:46;15.10;99.90
4910;DHT22;2470;49.868;8.660;2023-05-10T06:13:11;15.10;99.90
4910;DHT22;2470;49.868;8.660;2023-05-10T06:15:37;15.10;99.90
4910;DHT22;2470;49.868;8.660;2023-05-10T06:18:03;15.10;99.90
4910;DHT22;2470;49.868;8.660;2023-05-10T06:20:29;15.00;99.90
4910;DHT22;2470;49.868;8.660;2023-05-10T06:22:56;15.00;99.90
4910;DHT22;2470;49.868;8.660;2023-05-10T06:25:22;15.00;99.90
4910;DHT22;2470;49.868;8.660;2023-05-10T06:27:48;15.00;99.90
4910;DHT22;2470;49.868;8.660;2023-05-10T06:30:14;15.10;99.90
4910;DHT22;2470;49.868;8.660;2023-05-10T06:32:40;15.10;99.90
4910;DHT22;2470;49.868;8.660;2023-05-10T06:35:05;15.10;99.90
4910;DHT22;2470;49.868;8.660;2023-05-10T06:37:31;15.20;99.90
4910;DHT22;2470;49.868;8.660;2023-05-10T06:39:57;15.20;99.90
4910;DHT22;2470;49.868;8.660;2023-05-10T06:42:22;15.20;99.90
4910;DHT22;2470;49.868;8.660;2023-05-10T06:44:49;15.30;99.90
4910;DHT22;2470;49.868;8.660;2023-05-10T06:47:14;15.40;99.90
4910;DHT22;2470;49.868;8.660;2023-05-10T06:49:40;15.40;99.90
4910;DHT22;2470;49.868;8.660;2023-05-10T06:52:05;15.50;99.90
4910;DHT22;2470;49.868;8.660;2023-05-10T06:54:31;15.50;99.90
4910;DHT22;2470;49.868;8.660;2023-05-10T06:56:56;15.60;99.90
4910;DHT22;2470;49.868;8.660;2023-05-10T06:59:22;15.70;99.90
4910;DHT22;2470;49.868;8.660;2023-05-10T07:01:47;15.80;99.90
4910;DHT22;2470;49.868;8.660;2023-05-10T07:04:13;15.80;99.90
4910;DHT22;2470;49.868;8.660;2023-05-10T07:06:38;15.70;99.90
4910;DHT22;2470;49.868;8.660;2023-05-10T07:09:04;15.70;99.90
4910;DHT22;2470;49.868;8.660;2023-05-10T07:11:29;15.60;99.90
4910;DHT22;2470;49.868;8.660;2023-05-10T07:13:55;15.70;99.90
4910;DHT22;2470;49.868;8.660;2023-05-10T07:16:21;15.70;99.90
4910;DHT22;2470;49.868;8.660;2023-05-10T07:18:46;15.80;99.90
4910;DHT22;2470;49.868;8.660;2023-05-10T07:21:12;15.80;99.90
4910;DHT22;2470;49.868;8.660;2023-05-10T07:23:37;15.70;99.90
4910;DHT22;2470;49.868;8.660;2023-05-10T07:26:03;15.70;99.90
4910;DHT22;2470;49.868;8.660;2023-05-10T07:28:29;15.80;99.90
4910;DHT22;2470;49.868;8.660;2023-05-10T07:30:54;15.90;99.90
4910;DHT22;2470;49.868;8.660;2023-05-10T07:33:20;15.90;99.90
4910;DHT22;2470;49.868;8.660;2023-05-10T07:35:45;16.00;99.90
4910;DHT22;2470;49.868;8.660;2023-05-10T07:38:11;16.00;99.90
4910;DHT22;2470;49.868;8.660;2023-05-10T07:40:37;16.10;99.90
4910;DHT22;2470;49.868;8.660;2023-05-10T07:43:03;16.20;99.90
4910;DHT22;2470;49.868;8.660;2023-05-10T07:45:28;16.30;99.90
4910;DHT22;2470;49.868;8.660;2023-05-10T07:47:54;16.30;99.90
4910;DHT22;2470;49.868;8.660;2023-05-10T07:50:19;16.30;99.90
4910;DHT22;2470;49.868;8.660;2023-05-10T07:52:46;16.40;99.90
4910;DHT22;2470;49.868;8.660;2023-05-10T07:55:12;16.50;99.90
4910;DHT22;2470;49.868;8.660;2023-05-10T07:57:38;16.40;99.90
4910;DHT22;2470;49.868;8.660;2023-05-10T08:00:04;16.40;99.90
4910;DHT22;2470;49.868;8.660;2023-05-10T08:02:30;16.40;99.90
4910;DHT22;2470;49.868;8.660;2023-05-10T08:04:55;16.30;99.90
4910;DHT22;2470;49.868;8.660;2023-05-10T08:07:21;16.30;99.90
4910;DHT22;2470;49.868;8.660;2023-05-10T08:09:46;16.30;99.90
4910;DHT22;2470;49.868;8.660;2023-05-10T08:12:12;16.20;99.90
4910;DHT22;2470;49.868;8.660;2023-05-10T08:14:37;16.20;99.90
4910;DHT22;2470;49.868;8.660;2023-05-10T08:17:03;16.30;99.90
4910;DHT22;2470;49.868;8.660;2023-05-10T08:19:29;16.30;99.90
4910;DHT22;2470;49.868;8.660;2023-05-10T08:21:54;16.20;99.90
4910;DHT22;2470;49.868;8.660;2023-05-10T08:24:21;16.10;99.90
4910;DHT22;2470;49.868;8.660;2023-05-10T08:26:47;16.00;99.90
4910;DHT22;2470;49.868;8.660;2023-05-10T08:29:13;16.00;99.90
4910;DHT22;2470;49.868;8.660;2023-05-10T08:31:39;15.90;99.90
4910;DHT22;2470;49.868;8.660;2023-05-10T08:34:04;15.80;99.90
4910;DHT22;2470;49.868;8.660;2023-05-10T08:36:30;15.70;99.90
4910;DHT22;2470;49.868;8.660;2023-05-10T08:38:57;15.70;99.90
4910;DHT22;2470;49.868;8.660;2023-05-10T08:41:23;15.70;99.90
4910;DHT22;2470;49.868;8.660;2023-05-10T08:43:54;15.70;99.90
4910;DHT22;2470;49.868;8.660;2023-05-10T08:46:22;15.70;99.90
4910;DHT22;2470;49.868;8.660;2023-05-10T08:48:49;15.70;99.90
4910;DHT22;2470;49.868;8.660;2023-05-10T08:51:18;15.70;99.90
4910;DHT22;2470;49.868;8.660;2023-05-10T08:53:45;15.70;99.90
4910;DHT22;2470;49.868;8.660;2023-05-10T08:56:11;15.80;99.90
4910;DHT22;2470;49.868;8.660;2023-05-10T08:58:37;15.90;99.90
4910;DHT22;2470;49.868;8.660;2023-05-10T09:01:04;16.10;99.90
4910;DHT22;2470;49.868;8.660;2023-05-10T09:03:30;16.20;99.90
4910;DHT22;2470;49.868;8.660;2023-05-10T09:05:56;16.20;99.90
4910;DHT22;2470;49.868;8.660;2023-05-10T09:08:23;16.30;99.90
4910;DHT22;2470;49.868;8.660;2023-05-10T09:10:53;16.50;99.90
4910;DHT22;2470;49.868;8.660;2023-05-10T09:13:21;16.50;99.90
4910;DHT22;2470;49.868;8.660;2023-05-10T09:15:47;16.70;99.90
4910;DHT22;2470;49.868;8.660;2023-05-10T09:18:13;16.90;99.90
4910;DHT22;2470;49.868;8.660;2023-05-10T09:20:38;17.20;99.90
4910;DHT22;2470;49.868;8.660;2023-05-10T09:23:04;17.30;99.90
4910;DHT22;2470;49.868;8.660;2023-05-10T09:25:30;17.40;99.90
4910;DHT22;2470;49.868;8.660;2023-05-10T09:27:58;17.50;99.90
4910;DHT22;2470;49.868;8.660;2023-05-10T09:30:26;17.50;99.90
4910;DHT22;2470;49.868;8.660;2023-05-10T09:32:52;17.70;99.90
4910;DHT22;2470;49.868;8.660;2023-05-10T09:35:21;17.80;99.90
4910;DHT22;2470;49.868;8.660;2023-05-10T09:37:49;17.70;99.90
4910;DHT22;2470;49.868;8.660;2023-05-10T09:40:16;17.50;99.90
4910;DHT22;2470;49.868;8.660;2023-05-10T09:42:43;17.30;99.90
4910;DHT22;2470;49.868;8.660;2023-05-10T09:45:15;17.10;99.90
4910;DHT22;2470;49.868;8.660;2023-05-10T09:47:41;17.00;99.90
4910;DHT22;2470;49.868;8.660;2023-05-10T09:50:07;16.90;99.90
4910;DHT22;2470;49.868;8.660;2023-05-10T09:52:57;16.80;99.90
4910;DHT22;2470;49.868;8.660;2023-05-10T09:55:44;16.70;99.90
4910;DHT22;2470;49.868;8.660;2023-05-10T09:58:11;16.60;99.90
4910;DHT22;2470;49.868;8.660;2023-05-10T10:00:39;16.50;99.90
4910;DHT22;2470;49.868;8.660;2023-05-10T10:03:05;16.40;99.90
4910;DHT22;2470;49.868;8.660;2023-05-10T10:05:33;16.30;99.90
4910;DHT22;2470;49.868;8.660;2023-05-10T10:08:00;16.30;99.90
4910;DHT22;2470;49.868;8.660;2023-05-10T10:10:26;16.30;99.90
4910;DHT22;2470;49.868;8.660;2023-05-10T10:12:53;16.40;99.90
4910;DHT22;2470;49.868;8.660;2023-05-10T10:15:22;16.50;99.90
4910;DHT22;2470;49.868;8.660;2023-05-10T10:17:48;16.50;99.90
4910;DHT22;2470;49.868;8.660;2023-05-10T10:20:16;16.50;99.90
4910;DHT22;2470;49.868;8.660;2023-05-10T10:22:46;16.50;99.90
4910;DHT22;2470;49.868;8.660;2023-05-10T10:25:32;16.50;99.90
4910;DHT22;2470;49.868;8.660;2023-05-10T10:28:08;16.60;99.90
4910;DHT22;2470;49.868;8.660;2023-05-10T10:30:42;16.70;99.90
4910;DHT22;2470;49.868;8.660;2023-05-10T10:33:27;16.80;99.90
4910;DHT22;2470;49.868;8.660;2023-05-10T10:35:54;17.00;99.90
4910;DHT22;2470;49.868;8.660;2023-05-10T10:38:20;17.10;99.90
4910;DHT22;2470;49.868;8.660;2023-05-10T10:40:47;17.30;99.90
4910;DHT22;2470;49.868;8.660;2023-05-10T10:43:26;17.40;99.90
4910;DHT22;2470;49.868;8.660;2023-05-10T10:46:11;17.30;99.90
4910;DHT22;2470;49.868;8.660;2023-05-10T10:49:12;17.30;99.90
4910;DHT22;2470;49.868;8.660;2023-05-10T10:51:40;17.30;99.90
4910;DHT22;2470;49.868;8.660;2023-05-10T10:54:12;17.20;99.90
4910;DHT22;2470;49.868;8.660;2023-05-10T10:56:37;17.20;99.90
4910;DHT22;2470;49.868;8.660;2023-05-10T10:59:03;17.30;99.90
4910;DHT22;2470;49.868;8.660;2023-05-10T11:01:35;17.40;99.90
4910;DHT22;2470;49.868;8.660;2023-05-10T11:06:35;17.40;99.90
4910;DHT22;2470;49.868;8.660;2023-05-10T11:09:08;17.20;99.90
4910;DHT22;2470;49.868;8.660;2023-05-10T11:11:35;17.10;99.90
4910;DHT22;2470;49.868;8.660;2023-05-10T11:14:07;17.00;99.90
4910;DHT22;2470;49.868;8.660;2023-05-10T11:16:43;17.00;99.90
4910;DHT22;2470;49.868;8.660;2023-05-10T11:19:12;17.00;99.90
4910;DHT22;2470;49.868;8.660;2023-05-10T11:24:30;17.00;99.90
4910;DHT22;2470;49.868;8.660;2023-05-10T11:26:56;16.90;99.90
4910;DHT22;2470;49.868;8.660;2023-05-10T11:29:22;17.00;99.90
4910;DHT22;2470;49.868;8.660;2023-05-10T11:31:49;17.20;99.90
4910;DHT22;2470;49.868;8.660;2023-05-10T11:36:55;17.80;99.90
4910;DHT22;2470;49.868;8.660;2023-05-10T11:39:21;18.10;99.90
4910;DHT22;2470;49.868;8.660;2023-05-10T11:41:49;18.50;99.90
4910;DHT22;2470;49.868;8.660;2023-05-10T11:44:15;18.90;99.90
4910;DHT22;2470;49.868;8.660;2023-05-10T11:46:41;19.20;99.90
4910;DHT22;2470;49.868;8.660;2023-05-10T11:49:06;19.40;99.90
4910;DHT22;2470;49.868;8.660;2023-05-10T11:51:36;19.70;99.90
4910;DHT22;2470;49.868;8.660;2023-05-10T11:54:14;19.80;99.90
4910;DHT22;2470;49.868;8.660;2023-05-10T11:56:40;20.10;99.90
4910;DHT22;2470;49.868;8.660;2023-05-10T11:59:06;20.30;99.90
4910;DHT22;2470;49.868;8.660;2023-05-10T12:01:33;20.40;99.90
4910;DHT22;2470;49.868;8.660;2023-05-10T12:03:59;20.30;99.90
4910;DHT22;2470;49.868;8.660;2023-05-10T12:06:30;20.30;99.90
4910;DHT22;2470;49.868;8.660;2023-05-10T12:08:57;20.50;99.90
4910;DHT22;2470;49.868;8.660;2023-05-10T12:11:29;20.60;99.90
4910;DHT22;2470;49.868;8.660;2023-05-10T12:13:59;20.70;99.90
4910;DHT22;2470;49.868;8.660;2023-05-10T12:16:29;20.80;99.90
4910;DHT22;2470;49.868;8.660;2023-05-10T12:19:02;20.60;99.90
4910;DHT22;2470;49.868;8.660;2023-05-10T12:21:31;20.30;99.90
4910;DHT22;2470;49.868;8.660;2023-05-10T12:24:04;20.00;99.90
4910;DHT22;2470;49.868;8.660;2023-05-10T12:26:35;19.60;99.90
4910;DHT22;2470;49.868;8.660;2023-05-10T12:29:17;19.40;99.90
4910;DHT22;2470;49.868;8.660;2023-05-10T12:32:05;19.30;99.90
4910;DHT22;2470;49.868;8.660;2023-05-10T12:34:36;19.70;99.90
4910;DHT22;2470;49.868;8.660;2023-05-10T12:37:04;19.90;99.90
4910;DHT22;2470;49.868;8.660;2023-05-10T12:39:45;20.10;99.90
4910;DHT22;2470;49.868;8.660;2023-05-10T12:42:12;20.80;99.90
4910;DHT22;2470;49.868;8.660;2023-05-10T12:44:41;21.10;99.80
4910;DHT22;2470;49.868;8.660;2023-05-10T12:47:07;22.20;99.00
4910;DHT22;2470;49.868;8.660;2023-05-10T12:49:36;22.70;97.00
4910;DHT22;2470;49.868;8.660;2023-05-10T12:52:02;22.50;94.20
4910;DHT22;2470;49.868;8.660;2023-05-10T12:54:27;22.40;94.10
4910;DHT22;2470;49.868;8.660;2023-05-10T12:56:53;22.40;95.00
4910;DHT22;2470;49.868;8.660;2023-05-10T12:59:18;22.30;94.30
4910;DHT22;2470;49.868;8.660;2023-05-10T13:01:44;22.20;94.20
4910;DHT22;2470;49.868;8.660;2023-05-10T13:04:09;22.20;95.20
4910;DHT22;2470;49.868;8.660;2023-05-10T13:06:35;22.70;94.10
4910;DHT22;2470;49.868;8.660;2023-05-10T13:09:01;22.50;94.10
4910;DHT22;2470;49.868;8.660;2023-05-10T13:11:26;21.80;93.80
4910;DHT22;2470;49.868;8.660;2023-05-10T13:13:51;21.10;95.00
4910;DHT22;2470;49.868;8.660;2023-05-10T13:16:17;20.80;96.00
4910;DHT22;2470;49.868;8.660;2023-05-10T13:18:42;20.50;95.80
4910;DHT22;2470;49.868;8.660;2023-05-10T13:21:08;20.10;95.90
4910;DHT22;2470;49.868;8.660;2023-05-10T13:23:34;19.80;96.40
4910;DHT22;2470;49.868;8.660;2023-05-10T13:25:59;19.60;96.50
4910;DHT22;2470;49.868;8.660;2023-05-10T13:28:25;19.40;97.70
4910;DHT22;2470;49.868;8.660;2023-05-10T13:30:51;19.20;98.20
4910;DHT22;2470;49.868;8.660;2023-05-10T13:33:17;19.00;98.00
4910;DHT22;2470;49.868;8.660;2023-05-10T13:35:42;19.00;98.70
4910;DHT22;2470;49.868;8.660;2023-05-10T13:38:08;19.20;98.60
4910;DHT22;2470;49.868;8.660;2023-05-10T13:40:33;20.20;98.30
4910;DHT22;2470;49.868;8.660;2023-05-10T13:42:59;22.20;94.50
4910;DHT22;2470;49.868;8.660;2023-05-10T13:45:25;24.00;92.50
4910;DHT22;2470;49.868;8.660;2023-05-10T13:47:50;24.60;90.90
4910;DHT22;2470;49.868;8.660;2023-05-10T13:50:17;24.10;88.90
4910;DHT22;2470;49.868;8.660;2023-05-10T13:52:43;23.30;88.40
4910;DHT22;2470;49.868;8.660;2023-05-10T13:55:08;23.30;90.70
4910;DHT22;2470;49.868;8.660;2023-05-10T13:57:34;23.80;90.00
4910;DHT22;2470;49.868;8.660;2023-05-10T14:00:01;23.30;89.20
4910;DHT22;2470;49.868;8.660;2023-05-10T14:02:27;22.40;90.40
4910;DHT22;2470;49.868;8.660;2023-05-10T14:04:52;21.70;91.50
4910;DHT22;2470;49.868;8.660;2023-05-10T14:07:18;21.30;92.40
4910;DHT22;2470;49.868;8.660;2023-05-10T14:09:43;20.90;93.70
4910;DHT22;2470;49.868;8.660;2023-05-10T14:12:09;20.70;94.40
4910;DHT22;2470;49.868;8.660;2023-05-10T14:14:34;20.60;95.30
4910;DHT22;2470;49.868;8.660;2023-05-10T14:17:00;20.40;95.90
4910;DHT22;2470;49.868;8.660;2023-05-10T14:19:26;20.30;96.20
4910;DHT22;2470;49.868;8.660;2023-05-10T14:21:52;20.20;96.30
4910;DHT22;2470;49.868;8.660;2023-05-10T14:24:17;20.00;96.50
4910;DHT22;2470;49.868;8.660;2023-05-10T14:26:43;20.50;97.40
4910;DHT22;2470;49.868;8.660;2023-05-10T14:29:08;21.20;96.40
4910;DHT22;2470;49.868;8.660;2023-05-10T14:31:34;21.90;95.00
4910;DHT22;2470;49.868;8.660;2023-05-10T14:34:00;22.20;94.70
4910;DHT22;2470;49.868;8.660;2023-05-10T14:36:25;22.30;94.10
4910;DHT22;2470;49.868;8.660;2023-05-10T14:38:51;22.40;92.40
4910;DHT22;2470;49.868;8.660;2023-05-10T14:41:17;22.40;92.30
4910;DHT22;2470;49.868;8.660;2023-05-10T14:43:43;22.30;92.30
4910;DHT22;2470;49.868;8.660;2023-05-10T14:46:08;22.20;91.80
4910;DHT22;2470;49.868;8.660;2023-05-10T14:48:34;22.20;92.00
4910;DHT22;2470;49.868;8.660;2023-05-10T14:51:00;22.40;92.30
4910;DHT22;2470;49.868;8.660;2023-05-10T14:53:25;22.80;92.30
4910;DHT22;2470;49.868;8.660;2023-05-10T14:55:51;23.10;91.50
4910;DHT22;2470;49.868;8.660;2023-05-10T14:58:16;23.10;90.50
4910;DHT22;2470;49.868;8.660;2023-05-10T15:00:42;23.00;90.70
4910;DHT22;2470;49.868;8.660;2023-05-10T15:03:08;23.00;89.90
4910;DHT22;2470;49.868;8.660;2023-05-10T15:05:34;22.60;90.30
4910;DHT22;2470;49.868;8.660;2023-05-10T15:08:00;22.30;88.70
4910;DHT22;2470;49.868;8.660;2023-05-10T15:10:25;21.90;90.00
4910;DHT22;2470;49.868;8.660;2023-05-10T15:12:51;21.90;88.90
4910;DHT22;2470;49.868;8.660;2023-05-10T15:15:16;22.40;90.10
4910;DHT22;2470;49.868;8.660;2023-05-10T15:17:42;22.70;86.80
4910;DHT22;2470;49.868;8.660;2023-05-10T15:20:08;22.90;88.30
4910;DHT22;2470;49.868;8.660;2023-05-10T15:22:33;23.10;87.80
4910;DHT22;2470;49.868;8.660;2023-05-10T15:24:59;23.30;86.70
4910;DHT22;2470;49.868;8.660;2023-05-10T15:27:25;23.10;84.40
4910;DHT22;2470;49.868;8.660;2023-05-10T15:29:51;22.70;84.80
4910;DHT22;2470;49.868;8.660;2023-05-10T15:32:16;22.20;84.60
4910;DHT22;2470;49.868;8.660;2023-05-10T15:34:42;21.80;85.90
4910;DHT22;2470;49.868;8.660;2023-05-10T15:37:07;21.50;87.60
4910;DHT22;2470;49.868;8.660;2023-05-10T15:39:33;21.30;89.20
4910;DHT22;2470;49.868;8.660;2023-05-10T15:41:58;21.10;88.60
4910;DHT22;2470;49.868;8.660;2023-05-10T15:44:24;20.90;89.40
4910;DHT22;2470;49.868;8.660;2023-05-10T15:46:49;20.70;90.60
4910;DHT22;2470;49.868;8.660;2023-05-10T15:49:15;20.50;90.70
4910;DHT22;2470;49.868;8.660;2023-05-10T15:51:41;20.30;90.20
4910;DHT22;2470;49.868;8.660;2023-05-10T15:54:06;20.10;90.70
4910;DHT22;2470;49.868;8.660;2023-05-10T15:56:32;20.00;91.10
4910;DHT22;2470;49.868;8.660;2023-05-10T15:58:58;20.00;90.90
4910;DHT22;2470;49.868;8.660;2023-05-10T16:01:24;20.00;92.00
4910;DHT22;2470;49.868;8.660;2023-05-10T16:03:49;20.00;90.90
4910;DHT22;2470;49.868;8.660;2023-05-10T16:06:15;19.90;91.30
4910;DHT22;2470;49.868;8.660;2023-05-10T16:08:40;19.80;91.50
4910;DHT22;2470;49.868;8.660;2023-05-10T16:11:06;19.80;91.80
4910;DHT22;2470;49.868;8.660;2023-05-10T16:13:32;19.90;91.90
4910;DHT22;2470;49.868;8.660;2023-05-10T16:15:58;19.80;91.60
4910;DHT22;2470;49.868;8.660;2023-05-10T16:18:24;19.80;91.90
4910;DHT22;2470;49.868;8.660;2023-05-10T16:20:50;19.80;91.70
4910;DHT22;2470;49.868;8.660;2023-05-10T16:23:16;19.70;91.70